sensor_id;sensor_type;location;lat;lon;timestamp;P1;durP1;ratioP1;P2;durP2;ratioP2
35084;SDS011;21267;51.032;6.998;2023-04-07T00:01:38;34.30;;;22.30;;
35084;SDS011;21267;51.032;6.998;2023-04-07T00:04:12;31.60;;;22.58;;
35084;SDS011;21267;51.032;6.998;2023-04-07T00:06:41;26.30;;;17.90;;
35084;SDS011;21267;51.032;6.998;2023-04-07T00:09:09;27.88;;;21.45;;
35084;SDS011;21267;51.032;6.998;2023-04-07T00:11:39;32.17;;;22.83;;
35084;SDS011;21267;51.032;6.998;2023-04-07T00:14:07;30.88;;;22.58;;
35084;SDS011;21267;51.032;6.998;2023-04-07T00:16:34;32.33;;;22.42;;
35084;SDS011;21267;51.032;6.998;2023-04-07T00:19:02;29.52;;;20.60;;
35084;SDS011;21267;51.032;6.998;2023-04-07T00:21:28;31.77;;;21.55;;
35084;SDS011;21267;51.032;6.998;2023-04-07T00:23:55;32.72;;;22.40;;
35084;SDS011;21267;51.032;6.998;2023-04-07T00:26:24;32.08;;;21.77;;
35084;SDS011;21267;51.032;6.998;2023-04-07T00:28:57;32.20;;;22.40;;
35084;SDS011;21267;51.032;6.998;2023-04-07T00:31:24;30.35;;;23.15;;
35084;SDS011;21267;51.032;6.998;2023-04-07T00:33:51;32.85;;;22.65;;
35084;SDS011;21267;51.032;6.998;2023-04-07T00:36:18;31.10;;;20.70;;
35084;SDS011;21267;51.032;6.998;2023-04-07T00:38:45;32.72;;;23.55;;
35084;SDS011;21267;51.032;6.998;2023-04-07T00:41:12;33.47;;;22.88;;
35084;SDS011;21267;51.032;6.998;2023-04-07T00:43:39;37.05;;;25.08;;
35084;SDS011;21267;51.032;6.998;2023-04-07T00:46:05;37.92;;;27.13;;
35084;SDS011;21267;51.032;6.998;2023-04-07T00:48:32;38.33;;;24.23;;
35084;SDS011;21267;51.032;6.998;2023-04-07T00:50:59;32.67;;;22.05;;
35084;SDS011;21267;51.032;6.998;2023-04-07T00:53:26;44.25;;;27.27;;
35084;SDS011;21267;51.032;6.998;2023-04-07T00:55:53;40.50;;;26.27;;
35084;SDS011;21267;51.032;6.998;2023-04-07T00:58:19;34.17;;;24.50;;
35084;SDS011;21267;51.032;6.998;2023-04-07T01:06:28;32.80;;;23.20;;
35084;SDS011;21267;51.032;6.998;2023-04-07T01:14:39;39.88;;;28.17;;
35084;SDS011;21267;51.032;6.998;2023-04-07T01:17:08;37.97;;;26.70;;
35084;SDS011;21267;51.032;6.998;2023-04-07T01:19:36;40.90;;;29.00;;
35084;SDS011;21267;51.032;6.998;2023-04-07T01:22:12;32.75;;;22.02;;
35084;SDS011;21267;51.032;6.998;2023-04-07T01:29:43;42.10;;;27.50;;
35084;SDS011;21267;51.032;6.998;2023-04-07T01:32:13;39.35;;;27.15;;
35084;SDS011;21267;51.032;6.998;2023-04-07T01:34:41;42.45;;;29.52;;
35084;SDS011;21267;51.032;6.998;2023-04-07T01:37:10;43.22;;;27.88;;
35084;SDS011;21267;51.032;6.998;2023-04-07T01:39:37;43.90;;;31.00;;
35084;SDS011;21267;51.032;6.998;2023-04-07T01:42:05;45.53;;;32.37;;
35084;SDS011;21267;51.032;6.998;2023-04-07T01:44:34;48.13;;;29.30;;
35084;SDS011;21267;51.032;6.998;2023-04-07T01:47:01;46.97;;;30.17;;
35084;SDS011;21267;51.032;6.998;2023-04-07T01:49:32;42.88;;;29.70;;
35084;SDS011;21267;51.032;6.998;2023-04-07T01:52:01;43.15;;;29.10;;
35084;SDS011;21267;51.032;6.998;2023-04-07T01:54:30;42.78;;;29.85;;
35084;SDS011;21267;51.032;6.998;2023-04-07T01:56:57;32.10;;;23.77;;
35084;SDS011;21267;51.032;6.998;2023-04-07T01:59:24;46.70;;;30.17;;
35084;SDS011;21267;51.032;6.998;2023-04-07T02:01:50;45.03;;;30.90;;
35084;SDS011;21267;51.032;6.998;2023-04-07T02:06:53;47.83;;;31.58;;
35084;SDS011;21267;51.032;6.998;2023-04-07T02:09:24;47.55;;;31.45;;
35084;SDS011;21267;51.032;6.998;2023-04-07T02:11:55;48.90;;;33.03;;
35084;SDS011;21267;51.032;6.998;2023-04-07T02:14:25;50.05;;;33.88;;
35084;SDS011;21267;51.032;6.998;2023-04-07T02:16:53;48.83;;;32.85;;
35084;SDS011;21267;51.032;6.998;2023-04-07T02:19:21;46.88;;;33.08;;
35084;SDS011;21267;51.032;6.998;2023-04-07T02:21:48;47.75;;;32.58;;
35084;SDS011;21267;51.032;6.998;2023-04-07T02:24:19;51.92;;;34.80;;
35084;SDS011;21267;51.032;6.998;2023-04-07T02:26:48;50.97;;;34.58;;
35084;SDS011;21267;51.032;6.998;2023-04-07T02:29:15;53.42;;;36.95;;
35084;SDS011;21267;51.032;6.998;2023-04-07T02:31:42;56.50;;;36.72;;
35084;SDS011;21267;51.032;6.998;2023-04-07T02:34:08;54.00;;;34.60;;
35084;SDS011;21267;51.032;6.998;2023-04-07T02:36:35;58.83;;;36.35;;
35084;SDS011;21267;51.032;6.998;2023-04-07T02:39:02;55.58;;;36.50;;
35084;SDS011;21267;51.032;6.998;2023-04-07T02:41:29;58.03;;;37.33;;
35084;SDS011;21267;51.032;6.998;2023-04-07T02:43:57;58.85;;;35.72;;
35084;SDS011;21267;51.032;6.998;2023-04-07T02:46:26;56.38;;;36.28;;
35084;SDS011;21267;51.032;6.998;2023-04-07T02:48:53;63.03;;;36.88;;
35084;SDS011;21267;51.032;6.998;2023-04-07T02:51:19;59.50;;;35.67;;
35084;SDS011;21267;51.032;6.998;2023-04-07T02:53:46;66.55;;;39.17;;
35084;SDS011;21267;51.032;6.998;2023-04-07T02:56:13;58.72;;;36.75;;
35084;SDS011;21267;51.032;6.998;2023-04-07T02:58:41;61.70;;;36.63;;
35084;SDS011;21267;51.032;6.998;2023-04-07T03:01:07;64.75;;;37.53;;
35084;SDS011;21267;51.032;6.998;2023-04-07T03:03:34;57.55;;;31.38;;
35084;SDS011;21267;51.032;6.998;2023-04-07T03:06:01;65.43;;;37.97;;
35084;SDS011;21267;51.032;6.998;2023-04-07T03:08:29;69.65;;;38.78;;
35084;SDS011;21267;51.032;6.998;2023-04-07T03:10:56;64.07;;;34.63;;
35084;SDS011;21267;51.032;6.998;2023-04-07T03:13:24;65.45;;;36.05;;
35084;SDS011;21267;51.032;6.998;2023-04-07T03:15:55;68.82;;;37.00;;
35084;SDS011;21267;51.032;6.998;2023-04-07T03:18:22;65.70;;;36.38;;
35084;SDS011;21267;51.032;6.998;2023-04-07T03:20:49;73.65;;;39.10;;
35084;SDS011;21267;51.032;6.998;2023-04-07T03:23:18;63.13;;;33.45;;
35084;SDS011;21267;51.032;6.998;2023-04-07T03:25:44;64.70;;;35.22;;
35084;SDS011;21267;51.032;6.998;2023-04-07T03:28:13;58.25;;;30.52;;
35084;SDS011;21267;51.032;6.998;2023-04-07T03:30:40;64.33;;;32.97;;
35084;SDS011;21267;51.032;6.998;2023-04-07T03:33:07;70.80;;;37.38;;
35084;SDS011;21267;51.032;6.998;2023-04-07T03:35:34;75.73;;;39.80;;
35084;SDS011;21267;51.032;6.998;2023-04-07T03:38:01;65.43;;;35.05;;
35084;SDS011;21267;51.032;6.998;2023-04-07T03:40:27;48.85;;;26.88;;
35084;SDS011;21267;51.032;6.998;2023-04-07T03:42:54;74.05;;;43.72;;
35084;SDS011;21267;51.032;6.998;2023-04-07T03:45:21;45.75;;;23.65;;
35084;SDS011;21267;51.032;6.998;2023-04-07T03:47:48;68.82;;;37.88;;
35084;SDS011;21267;51.032;6.998;2023-04-07T03:50:14;76.47;;;39.60;;
35084;SDS011;21267;51.032;6.998;2023-04-07T03:52:41;66.43;;;36.65;;
35084;SDS011;21267;51.032;6.998;2023-04-07T03:55:08;72.43;;;40.10;;
35084;SDS011;21267;51.032;6.998;2023-04-07T03:57:35;70.93;;;38.30;;
35084;SDS011;21267;51.032;6.998;2023-04-07T04:00:01;62.80;;;31.88;;
35084;SDS011;21267;51.032;6.998;2023-04-07T04:02:29;69.75;;;39.45;;
35084;SDS011;21267;51.032;6.998;2023-04-07T04:04:56;67.87;;;37.23;;
35084;SDS011;21267;51.032;6.998;2023-04-07T04:07:23;54.90;;;30.27;;
35084;SDS011;21267;51.032;6.998;2023-04-07T04:09:51;50.00;;;29.35;;
35084;SDS011;21267;51.032;6.998;2023-04-07T04:12:19;54.72;;;33.35;;
35084;SDS011;21267;51.032;6.998;2023-04-07T04:14:45;55.22;;;31.35;;
35084;SDS011;21267;51.032;6.998;2023-04-07T04:17:12;49.42;;;29.55;;
35084;SDS011;21267;51.032;6.998;2023-04-07T04:19:39;50.50;;;30.58;;
35084;SDS011;21267;51.032;6.998;2023-04-07T04:22:05;56.25;;;31.23;;
35084;SDS011;21267;51.032;6.998;2023-04-07T04:24:32;50.95;;;29.02;;
35084;SDS011;21267;51.032;6.998;2023-04-07T04:26:59;49.10;;;28.30;;
35084;SDS011;21267;51.032;6.998;2023-04-07T04:29:28;50.45;;;30.70;;
35084;SDS011;21267;51.032;6.998;2023-04-07T04:31:57;55.95;;;30.60;;
35084;SDS011;21267;51.032;6.998;2023-04-07T04:34:24;51.45;;;29.05;;
35084;SDS011;21267;51.032;6.998;2023-04-07T04:36:51;52.93;;;29.13;;
35084;SDS011;21267;51.032;6.998;2023-04-07T04:39:18;48.90;;;29.15;;
35084;SDS011;21267;51.032;6.998;2023-04-07T04:41:47;43.08;;;25.08;;
35084;SDS011;21267;51.032;6.998;2023-04-07T04:44:16;55.22;;;30.45;;
35084;SDS011;21267;51.032;6.998;2023-04-07T04:46:42;54.33;;;28.63;;
35084;SDS011;21267;51.032;6.998;2023-04-07T04:49:09;46.63;;;28.15;;
35084;SDS011;21267;51.032;6.998;2023-04-07T04:51:36;53.25;;;28.40;;
35084;SDS011;21267;51.032;6.998;2023-04-07T04:54:02;64.65;;;34.17;;
35084;SDS011;21267;51.032;6.998;2023-04-07T04:56:31;64.80;;;36.17;;
35084;SDS011;21267;51.032;6.998;2023-04-07T04:59:01;58.35;;;31.83;;
35084;SDS011;21267;51.032;6.998;2023-04-07T05:03:57;59.55;;;32.72;;
35084;SDS011;21267;51.032;6.998;2023-04-07T05:06:25;64.05;;;33.80;;
35084;SDS011;21267;51.032;6.998;2023-04-07T05:08:52;53.70;;;27.17;;
35084;SDS011;21267;51.032;6.998;2023-04-07T05:11:19;54.75;;;32.05;;
35084;SDS011;21267;51.032;6.998;2023-04-07T05:13:46;49.63;;;26.65;;
35084;SDS011;21267;51.032;6.998;2023-04-07T05:16:13;55.25;;;28.95;;
35084;SDS011;21267;51.032;6.998;2023-04-07T05:18:40;50.58;;;26.08;;
35084;SDS011;21267;51.032;6.998;2023-04-07T05:21:07;51.60;;;30.67;;
35084;SDS011;21267;51.032;6.998;2023-04-07T05:23:34;55.55;;;30.65;;
35084;SDS011;21267;51.032;6.998;2023-04-07T05:26:03;49.88;;;25.33;;
35084;SDS011;21267;51.032;6.998;2023-04-07T05:28:29;59.25;;;30.73;;
35084;SDS011;21267;51.032;6.998;2023-04-07T05:30:56;47.47;;;29.17;;
35084;SDS011;21267;51.032;6.998;2023-04-07T05:33:23;53.42;;;30.10;;
35084;SDS011;21267;51.032;6.998;2023-04-07T05:35:50;35.10;;;18.83;;
35084;SDS011;21267;51.032;6.998;2023-04-07T05:38:16;49.85;;;28.38;;
35084;SDS011;21267;51.032;6.998;2023-04-07T05:40:43;39.22;;;20.80;;
35084;SDS011;21267;51.032;6.998;2023-04-07T05:43:10;39.85;;;22.60;;
35084;SDS011;21267;51.032;6.998;2023-04-07T05:45:40;32.15;;;18.50;;
35084;SDS011;21267;51.032;6.998;2023-04-07T05:48:07;39.55;;;23.25;;
35084;SDS011;21267;51.032;6.998;2023-04-07T05:50:35;41.97;;;23.55;;
35084;SDS011;21267;51.032;6.998;2023-04-07T05:53:02;45.53;;;24.42;;
35084;SDS011;21267;51.032;6.998;2023-04-07T05:55:29;38.38;;;21.02;;
35084;SDS011;21267;51.032;6.998;2023-04-07T05:57:59;38.22;;;20.92;;
35084;SDS011;21267;51.032;6.998;2023-04-07T06:00:27;31.63;;;19.15;;
35084;SDS011;21267;51.032;6.998;2023-04-07T06:02:55;37.58;;;22.35;;
35084;SDS011;21267;51.032;6.998;2023-04-07T06:05:22;36.55;;;18.67;;
35084;SDS011;21267;51.032;6.998;2023-04-07T06:07:51;35.08;;;19.25;;
35084;SDS011;21267;51.032;6.998;2023-04-07T06:10:18;36.33;;;21.03;;
35084;SDS011;21267;51.032;6.998;2023-04-07T06:12:48;36.50;;;21.35;;
35084;SDS011;21267;51.032;6.998;2023-04-07T06:15:16;37.73;;;20.90;;
35084;SDS011;21267;51.032;6.998;2023-04-07T06:17:43;29.65;;;16.90;;
35084;SDS011;21267;51.032;6.998;2023-04-07T06:20:11;22.48;;;13.48;;
35084;SDS011;21267;51.032;6.998;2023-04-07T06:22:38;32.03;;;18.60;;
35084;SDS011;21267;51.032;6.998;2023-04-07T06:25:05;26.63;;;16.75;;
35084;SDS011;21267;51.032;6.998;2023-04-07T06:27:32;32.73;;;18.03;;
35084;SDS011;21267;51.032;6.998;2023-04-07T06:33:39;31.00;;;18.98;;
35084;SDS011;21267;51.032;6.998;2023-04-07T06:36:05;29.27;;;17.65;;
35084;SDS011;21267;51.032;6.998;2023-04-07T06:38:32;31.08;;;17.83;;
35084;SDS011;21267;51.032;6.998;2023-04-07T06:41:02;34.17;;;18.90;;
35084;SDS011;21267;51.032;6.998;2023-04-07T06:43:29;30.03;;;18.50;;
35084;SDS011;21267;51.032;6.998;2023-04-07T06:45:57;30.00;;;18.05;;
35084;SDS011;21267;51.032;6.998;2023-04-07T06:48:37;30.80;;;16.10;;
35084;SDS011;21267;51.032;6.998;2023-04-07T06:51:05;29.90;;;17.65;;
35084;SDS011;21267;51.032;6.998;2023-04-07T06:53:32;20.85;;;12.07;;
35084;SDS011;21267;51.032;6.998;2023-04-07T06:56:13;26.33;;;16.25;;
35084;SDS011;21267;51.032;6.998;2023-04-07T06:58:40;27.83;;;17.08;;
35084;SDS011;21267;51.032;6.998;2023-04-07T07:01:07;33.30;;;18.43;;
35084;SDS011;21267;51.032;6.998;2023-04-07T07:03:42;33.85;;;20.40;;
35084;SDS011;21267;51.032;6.998;2023-04-07T07:06:09;32.70;;;17.55;;
35084;SDS011;21267;51.032;6.998;2023-04-07T07:08:39;32.30;;;17.98;;
35084;SDS011;21267;51.032;6.998;2023-04-07T07:11:06;28.73;;;16.20;;
35084;SDS011;21267;51.032;6.998;2023-04-07T07:13:33;25.17;;;15.90;;
35084;SDS011;21267;51.032;6.998;2023-04-07T07:16:00;30.83;;;17.55;;
35084;SDS011;21267;51.032;6.998;2023-04-07T07:18:27;24.07;;;13.57;;
35084;SDS011;21267;51.032;6.998;2023-04-07T07:20:56;24.60;;;14.48;;
35084;SDS011;21267;51.032;6.998;2023-04-07T07:23:24;28.85;;;13.43;;
35084;SDS011;21267;51.032;6.998;2023-04-07T07:25:57;22.77;;;12.27;;
35084;SDS011;21267;51.032;6.998;2023-04-07T07:28:28;29.17;;;13.17;;
35084;SDS011;21267;51.032;6.998;2023-04-07T07:30:55;19.10;;;10.25;;
35084;SDS011;21267;51.032;6.998;2023-04-07T07:33:22;17.52;;;9.10;;
35084;SDS011;21267;51.032;6.998;2023-04-07T07:35:48;19.48;;;12.27;;
35084;SDS011;21267;51.032;6.998;2023-04-07T07:38:17;19.20;;;12.35;;
35084;SDS011;21267;51.032;6.998;2023-04-07T07:40:44;20.13;;;11.75;;
35084;SDS011;21267;51.032;6.998;2023-04-07T07:43:12;22.33;;;12.90;;
35084;SDS011;21267;51.032;6.998;2023-04-07T07:45:48;22.90;;;14.02;;
35084;SDS011;21267;51.032;6.998;2023-04-07T07:48:15;23.52;;;13.30;;
35084;SDS011;21267;51.032;6.998;2023-04-07T07:50:42;20.75;;;12.27;;
35084;SDS011;21267;51.032;6.998;2023-04-07T07:53:10;26.80;;;13.73;;
35084;SDS011;21267;51.032;6.998;2023-04-07T07:55:39;21.65;;;11.43;;
35084;SDS011;21267;51.032;6.998;2023-04-07T07:58:06;24.17;;;12.43;;
35084;SDS011;21267;51.032;6.998;2023-04-07T08:00:33;20.92;;;12.48;;
35084;SDS011;21267;51.032;6.998;2023-04-07T08:02:59;19.90;;;11.90;;
35084;SDS011;21267;51.032;6.998;2023-04-07T08:05:26;19.63;;;12.10;;
35084;SDS011;21267;51.032;6.998;2023-04-07T08:07:53;21.40;;;12.63;;
35084;SDS011;21267;51.032;6.998;2023-04-07T08:10:21;21.42;;;12.48;;
35084;SDS011;21267;51.032;6.998;2023-04-07T08:12:50;19.63;;;12.40;;
35084;SDS011;21267;51.032;6.998;2023-04-07T08:15:24;27.15;;;12.05;;
35084;SDS011;21267;51.032;6.998;2023-04-07T08:17:52;22.33;;;11.27;;
35084;SDS011;21267;51.032;6.998;2023-04-07T08:20:21;13.70;;;7.65;;
35084;SDS011;21267;51.032;6.998;2023-04-07T08:22:52;19.02;;;12.90;;
35084;SDS011;21267;51.032;6.998;2023-04-07T08:25:19;20.55;;;10.45;;
35084;SDS011;21267;51.032;6.998;2023-04-07T08:27:46;21.20;;;13.13;;
35084;SDS011;21267;51.032;6.998;2023-04-07T08:30:12;19.67;;;12.40;;
35084;SDS011;21267;51.032;6.998;2023-04-07T08:32:40;23.98;;;11.40;;
35084;SDS011;21267;51.032;6.998;2023-04-07T08:35:09;19.60;;;12.07;;
35084;SDS011;21267;51.032;6.998;2023-04-07T08:37:37;18.73;;;10.60;;
35084;SDS011;21267;51.032;6.998;2023-04-07T08:40:05;17.65;;;10.40;;
35084;SDS011;21267;51.032;6.998;2023-04-07T08:42:33;18.05;;;11.18;;
35084;SDS011;21267;51.032;6.998;2023-04-07T08:45:15;14.20;;;9.15;;
35084;SDS011;21267;51.032;6.998;2023-04-07T08:47:43;15.25;;;9.35;;
35084;SDS011;21267;51.032;6.998;2023-04-07T08:50:19;18.90;;;10.77;;
35084;SDS011;21267;51.032;6.998;2023-04-07T08:52:52;16.55;;;10.55;;
35084;SDS011;21267;51.032;6.998;2023-04-07T08:55:37;16.17;;;10.77;;
35084;SDS011;21267;51.032;6.998;2023-04-07T08:58:04;17.38;;;10.32;;
35084;SDS011;21267;51.032;6.998;2023-04-07T09:00:34;17.88;;;11.32;;
35084;SDS011;21267;51.032;6.998;2023-04-07T09:03:02;15.88;;;10.13;;
35084;SDS011;21267;51.032;6.998;2023-04-07T09:05:30;17.65;;;13.27;;
35084;SDS011;21267;51.032;6.998;2023-04-07T09:07:58;19.08;;;13.57;;
35084;SDS011;21267;51.032;6.998;2023-04-07T09:10:25;20.05;;;13.93;;
35084;SDS011;21267;51.032;6.998;2023-04-07T09:12:53;19.95;;;13.43;;
35084;SDS011;21267;51.032;6.998;2023-04-07T09:15:33;18.98;;;12.68;;
35084;SDS011;21267;51.032;6.998;2023-04-07T09:18:03;17.48;;;13.07;;
35084;SDS011;21267;51.032;6.998;2023-04-07T09:21:00;17.15;;;13.07;;
35084;SDS011;21267;51.032;6.998;2023-04-07T09:23:33;16.73;;;10.65;;
35084;SDS011;21267;51.032;6.998;2023-04-07T09:35:18;21.88;;;12.77;;
35084;SDS011;21267;51.032;6.998;2023-04-07T09:38:23;17.08;;;11.40;;
35084;SDS011;21267;51.032;6.998;2023-04-07T09:41:12;18.05;;;12.10;;
35084;SDS011;21267;51.032;6.998;2023-04-07T09:43:45;17.40;;;12.25;;
35084;SDS011;21267;51.032;6.998;2023-04-07T09:46:28;15.23;;;11.13;;
35084;SDS011;21267;51.032;6.998;2023-04-07T09:49:01;15.88;;;11.13;;
35084;SDS011;21267;51.032;6.998;2023-04-07T09:52:04;16.27;;;10.63;;
35084;SDS011;21267;51.032;6.998;2023-04-07T09:54:37;14.07;;;10.10;;
35084;SDS011;21267;51.032;6.998;2023-04-07T09:57:08;18.23;;;10.52;;
35084;SDS011;21267;51.032;6.998;2023-04-07T09:59:52;16.25;;;9.70;;
35084;SDS011;21267;51.032;6.998;2023-04-07T10:02:21;15.13;;;10.57;;
35084;SDS011;21267;51.032;6.998;2023-04-07T10:05:02;15.07;;;8.98;;
35084;SDS011;21267;51.032;6.998;2023-04-07T10:07:30;18.98;;;10.00;;
35084;SDS011;21267;51.032;6.998;2023-04-07T10:10:01;18.45;;;10.80;;
35084;SDS011;21267;51.032;6.998;2023-04-07T10:12:29;18.15;;;10.98;;
35084;SDS011;21267;51.032;6.998;2023-04-07T10:14:59;18.38;;;11.48;;
35084;SDS011;21267;51.032;6.998;2023-04-07T10:17:27;18.65;;;10.30;;
35084;SDS011;21267;51.032;6.998;2023-04-07T10:19:56;16.47;;;10.93;;
35084;SDS011;21267;51.032;6.998;2023-04-07T10:22:27;17.60;;;9.35;;
35084;SDS011;21267;51.032;6.998;2023-04-07T10:25:10;16.80;;;10.80;;
35084;SDS011;21267;51.032;6.998;2023-04-07T10:27:40;17.67;;;11.40;;
35084;SDS011;21267;51.032;6.998;2023-04-07T10:30:21;18.67;;;11.80;;
35084;SDS011;21267;51.032;6.998;2023-04-07T10:32:51;21.42;;;13.43;;
35084;SDS011;21267;51.032;6.998;2023-04-07T10:35:18;21.33;;;13.77;;
35084;SDS011;21267;51.032;6.998;2023-04-07T10:40:32;25.15;;;14.45;;
35084;SDS011;21267;51.032;6.998;2023-04-07T10:43:01;25.20;;;15.45;;
35084;SDS011;21267;51.032;6.998;2023-04-07T10:48:24;23.67;;;14.43;;
35084;SDS011;21267;51.032;6.998;2023-04-07T10:53:37;21.13;;;11.80;;
35084;SDS011;21267;51.032;6.998;2023-04-07T10:59:31;26.80;;;14.90;;
35084;SDS011;21267;51.032;6.998;2023-04-07T11:04:38;22.13;;;13.93;;
35084;SDS011;21267;51.032;6.998;2023-04-07T11:07:10;27.02;;;16.00;;
35084;SDS011;21267;51.032;6.998;2023-04-07T11:09:42;26.95;;;15.98;;
35084;SDS011;21267;51.032;6.998;2023-04-07T11:12:17;25.70;;;15.98;;
35084;SDS011;21267;51.032;6.998;2023-04-07T11:15:24;23.92;;;15.15;;
35084;SDS011;21267;51.032;6.998;2023-04-07T11:18:04;22.55;;;16.23;;
35084;SDS011;21267;51.032;6.998;2023-04-07T11:20:52;27.65;;;16.67;;
35084;SDS011;21267;51.032;6.998;2023-04-07T11:23:21;25.15;;;15.93;;
35084;SDS011;21267;51.032;6.998;2023-04-07T11:26:04;23.20;;;13.50;;
35084;SDS011;21267;51.032;6.998;2023-04-07T11:28:31;20.80;;;13.27;;
35084;SDS011;21267;51.032;6.998;2023-04-07T11:30:58;13.35;;;7.40;;
35084;SDS011;21267;51.032;6.998;2023-04-07T11:33:26;18.92;;;13.25;;
35084;SDS011;21267;51.032;6.998;2023-04-07T11:35:55;18.00;;;12.55;;
35084;SDS011;21267;51.032;6.998;2023-04-07T11:38:26;16.02;;;9.40;;
35084;SDS011;21267;51.032;6.998;2023-04-07T11:40:55;22.08;;;12.52;;
35084;SDS011;21267;51.032;6.998;2023-04-07T11:43:23;18.50;;;11.75;;
35084;SDS011;21267;51.032;6.998;2023-04-07T11:46:03;13.80;;;8.25;;
35084;SDS011;21267;51.032;6.998;2023-04-07T11:48:39;18.02;;;11.23;;
35084;SDS011;21267;51.032;6.998;2023-04-07T11:51:14;18.65;;;11.95;;
35084;SDS011;21267;51.032;6.998;2023-04-07T11:53:42;17.27;;;10.85;;
35084;SDS011;21267;51.032;6.998;2023-04-07T11:56:11;18.57;;;13.03;;
35084;SDS011;21267;51.032;6.998;2023-04-07T11:58:46;18.33;;;14.50;;
35084;SDS011;21267;51.032;6.998;2023-04-07T12:01:13;25.08;;;14.98;;
35084;SDS011;21267;51.032;6.998;2023-04-07T12:03:53;20.70;;;14.00;;
35084;SDS011;21267;51.032;6.998;2023-04-07T12:06:32;26.27;;;16.83;;
35084;SDS011;21267;51.032;6.998;2023-04-07T12:09:07;23.83;;;14.98;;
35084;SDS011;21267;51.032;6.998;2023-04-07T12:11:35;20.33;;;14.65;;
35084;SDS011;21267;51.032;6.998;2023-04-07T12:14:18;23.52;;;15.63;;
35084;SDS011;21267;51.032;6.998;2023-04-07T12:16:45;18.33;;;13.53;;
35084;SDS011;21267;51.032;6.998;2023-04-07T12:19:12;19.63;;;13.77;;
35084;SDS011;21267;51.032;6.998;2023-04-07T12:21:46;19.77;;;12.82;;
35084;SDS011;21267;51.032;6.998;2023-04-07T12:24:20;21.88;;;14.65;;
35084;SDS011;21267;51.032;6.998;2023-04-07T12:27:01;21.23;;;14.75;;
35084;SDS011;21267;51.032;6.998;2023-04-07T12:29:28;20.65;;;15.70;;
35084;SDS011;21267;51.032;6.998;2023-04-07T12:32:09;22.83;;;15.18;;
35084;SDS011;21267;51.032;6.998;2023-04-07T12:34:36;21.08;;;15.25;;
35084;SDS011;21267;51.032;6.998;2023-04-07T12:37:16;14.73;;;10.73;;
35084;SDS011;21267;51.032;6.998;2023-04-07T12:39:43;17.73;;;13.85;;
35084;SDS011;21267;51.032;6.998;2023-04-07T12:42:09;18.70;;;13.40;;
35084;SDS011;21267;51.032;6.998;2023-04-07T12:44:37;14.80;;;11.80;;
35084;SDS011;21267;51.032;6.998;2023-04-07T12:47:04;16.42;;;11.98;;
35084;SDS011;21267;51.032;6.998;2023-04-07T12:49:44;15.55;;;12.35;;
35084;SDS011;21267;51.032;6.998;2023-04-07T12:52:14;17.58;;;12.57;;
35084;SDS011;21267;51.032;6.998;2023-04-07T12:54:55;15.32;;;11.40;;
35084;SDS011;21267;51.032;6.998;2023-04-07T12:57:22;16.00;;;11.00;;
35084;SDS011;21267;51.032;6.998;2023-04-07T12:59:49;13.32;;;11.43;;
35084;SDS011;21267;51.032;6.998;2023-04-07T13:02:30;17.83;;;12.40;;
35084;SDS011;21267;51.032;6.998;2023-04-07T13:04:58;17.73;;;13.30;;
35084;SDS011;21267;51.032;6.998;2023-04-07T13:07:38;18.48;;;15.10;;
35084;SDS011;21267;51.032;6.998;2023-04-07T13:10:05;21.02;;;14.55;;
35084;SDS011;21267;51.032;6.998;2023-04-07T13:12:47;19.27;;;13.88;;
35084;SDS011;21267;51.032;6.998;2023-04-07T13:15:14;20.73;;;13.93;;
35084;SDS011;21267;51.032;6.998;2023-04-07T13:17:40;17.40;;;13.57;;
35084;SDS011;21267;51.032;6.998;2023-04-07T13:20:07;16.50;;;12.48;;
35084;SDS011;21267;51.032;6.998;2023-04-07T13:22:48;15.00;;;10.32;;
35084;SDS011;21267;51.032;6.998;2023-04-07T13:25:28;16.25;;;11.43;;
35084;SDS011;21267;51.032;6.998;2023-04-07T13:27:55;12.75;;;10.80;;
35084;SDS011;21267;51.032;6.998;2023-04-07T13:30:22;15.90;;;11.15;;
35084;SDS011;21267;51.032;6.998;2023-04-07T13:32:48;13.88;;;11.15;;
35084;SDS011;21267;51.032;6.998;2023-04-07T13:35:22;14.15;;;11.20;;
35084;SDS011;21267;51.032;6.998;2023-04-07T13:37:49;18.50;;;10.82;;
35084;SDS011;21267;51.032;6.998;2023-04-07T13:40:16;16.90;;;12.43;;
35084;SDS011;21267;51.032;6.998;2023-04-07T13:42:42;15.50;;;11.35;;
35084;SDS011;21267;51.032;6.998;2023-04-07T13:45:09;14.52;;;11.10;;
35084;SDS011;21267;51.032;6.998;2023-04-07T13:47:50;14.32;;;11.38;;
35084;SDS011;21267;51.032;6.998;2023-04-07T13:50:17;14.57;;;10.83;;
35084;SDS011;21267;51.032;6.998;2023-04-07T13:52:57;14.05;;;11.15;;
35084;SDS011;21267;51.032;6.998;2023-04-07T13:55:24;15.07;;;11.90;;
35084;SDS011;21267;51.032;6.998;2023-04-07T13:57:50;13.75;;;10.38;;
35084;SDS011;21267;51.032;6.998;2023-04-07T14:00:25;16.58;;;11.52;;
35084;SDS011;21267;51.032;6.998;2023-04-07T14:02:51;14.63;;;10.40;;
35084;SDS011;21267;51.032;6.998;2023-04-07T14:05:19;19.77;;;13.00;;
35084;SDS011;21267;51.032;6.998;2023-04-07T14:07:48;16.75;;;11.38;;
35084;SDS011;21267;51.032;6.998;2023-04-07T14:10:16;16.75;;;9.57;;
35084;SDS011;21267;51.032;6.998;2023-04-07T14:12:45;17.77;;;12.00;;
35084;SDS011;21267;51.032;6.998;2023-04-07T14:15:12;17.98;;;13.77;;
35084;SDS011;21267;51.032;6.998;2023-04-07T14:17:41;15.00;;;12.57;;
35084;SDS011;21267;51.032;6.998;2023-04-07T14:20:07;19.42;;;13.07;;
35084;SDS011;21267;51.032;6.998;2023-04-07T14:22:34;19.88;;;12.88;;
35084;SDS011;21267;51.032;6.998;2023-04-07T14:25:01;14.77;;;12.45;;
35084;SDS011;21267;51.032;6.998;2023-04-07T14:27:27;16.00;;;11.57;;
35084;SDS011;21267;51.032;6.998;2023-04-07T14:29:56;17.80;;;11.75;;
35084;SDS011;21267;51.032;6.998;2023-04-07T14:32:25;16.20;;;11.32;;
35084;SDS011;21267;51.032;6.998;2023-04-07T14:34:55;15.98;;;11.38;;
35084;SDS011;21267;51.032;6.998;2023-04-07T14:37:22;12.93;;;10.20;;
35084;SDS011;21267;51.032;6.998;2023-04-07T14:39:51;15.32;;;9.63;;
35084;SDS011;21267;51.032;6.998;2023-04-07T14:42:28;13.73;;;9.73;;
35084;SDS011;21267;51.032;6.998;2023-04-07T14:44:55;13.68;;;9.57;;
35084;SDS011;21267;51.032;6.998;2023-04-07T14:47:23;13.30;;;10.10;;
35084;SDS011;21267;51.032;6.998;2023-04-07T14:49:52;13.45;;;8.43;;
35084;SDS011;21267;51.032;6.998;2023-04-07T14:52:20;11.88;;;10.18;;
35084;SDS011;21267;51.032;6.998;2023-04-07T14:54:47;13.93;;;9.95;;
35084;SDS011;21267;51.032;6.998;2023-04-07T14:57:14;14.02;;;10.65;;
35084;SDS011;21267;51.032;6.998;2023-04-07T14:59:42;11.77;;;10.57;;
35084;SDS011;21267;51.032;6.998;2023-04-07T15:02:08;12.73;;;10.48;;
35084;SDS011;21267;51.032;6.998;2023-04-07T15:04:35;13.87;;;11.60;;
35084;SDS011;21267;51.032;6.998;2023-04-07T15:07:02;16.40;;;11.43;;
35084;SDS011;21267;51.032;6.998;2023-04-07T15:09:30;13.57;;;11.15;;
35084;SDS011;21267;51.032;6.998;2023-04-07T15:11:56;14.00;;;11.38;;
35084;SDS011;21267;51.032;6.998;2023-04-07T15:14:23;14.60;;;11.30;;
35084;SDS011;21267;51.032;6.998;2023-04-07T15:16:50;12.75;;;10.43;;
35084;SDS011;21267;51.032;6.998;2023-04-07T15:19:16;13.40;;;11.25;;
35084;SDS011;21267;51.032;6.998;2023-04-07T15:21:43;16.27;;;11.15;;
35084;SDS011;21267;51.032;6.998;2023-04-07T15:24:10;15.27;;;11.73;;